Carencro, LA (70520)

2:25 PM CDT on October 01, 2014 (GMT -0500)
Scott, LA | Change Station
CLOSE
Current Station
Personal Weather Station
Location: Scott, LA
Elevation: 31 ft
Nearby Weather Stations

Elev 31 ft 30.23 °N, 92.13 °W | Updated 2 seconds ago

Mostly Cloudy
Mostly Cloudy
85.5 °F
Feels Like 98 °F
N
4.0
Wind Variable Wind from South
Gusts 10.0 mph

Today
High -- | Low -- °F
--% Chance of Precip.
Yesterday
High -- | Low -- °F
Precip. -- in
7:01 AM 6:53 PM
Waxing Crescent, 50% visible
Pressure 29.88 in
Visibility 10.0 miles
Clouds Few 1500 ft
Scattered Clouds 2000 ft
Mostly Cloudy 2800 ft
Heat Index 98 °F
Dew Point 78 °F
Humidity 79%
Rainfall 0.07 in
Snow Depth Not available.
UV 5 out of 12
Pollen 7.20 out of 12
Air Quality Not available.
Flu Activity Not available.
METAR KLFT 011853Z 11004KT 10SM FEW015 SCT020 BKN028 29/24 A2988 RMK AO2 SLP116 T02890244 $

More Conditions Fewer Conditions

Pressure 29.88 in
Visibility 10.0 miles
Clouds Few 1500 ft
Scattered Clouds 2000 ft
Mostly Cloudy 2800 ft
Heat Index 98 °F
Dew Point 78 °F
Humidity 79%
Rainfall 0.07 in
Snow Depth Not available.
UV 5 out of 12
Pollen 7.20 out of 12
Air Quality Not available.
Flu Activity Not available.
METAR KLFT 011853Z 11004KT 10SM FEW015 SCT020 BKN028 29/24 A2988 RMK AO2 SLP116 T02890244 $

More Conditions Fewer Conditions

10-Day Weather Forecast

Almanac

Astronomy

Oct. 01, 2014 Rise Set
Actual Time 7:01 AM CDT 6:53 PM CDT
Civil Twilight 6:37 AM CDT 7:17 PM CDT
Nautical Twilight 6:09 AM CDT 7:45 PM CDT
Astronomical Twilight 5:41 AM CDT 8:13 PM CDT
Moon 1:45 PM CDT No Moon Set
Length of Visible Light 12h 39m
Length of Day
11h 51m
Tomorrow will be 1m 50s shorter.
Waxing Crescent, 50% of the Moon is Illuminated
Today
Waxing Crescent
Oct 1
First Quarter
Oct 8
Full
Oct 15
Last Quarter
Oct 23
New

Today's Extremes

State Highs State Lows

Community

WunderPhotos

Upload Photos

1,758,010 photos uploaded!

WunderBlogs® & News

Nearby

Snow Depth

Station Depth Elevation
No new snow has been reported.

Earthquake Activity

City Distance Mag. Time & Date
No recent earthquake activity has been reported nearby.
Minimum magnitude displayed is 2.5.

Coastal Water Temperatures

Place Temperature
No Stations Reporting

Nearby Weather Stations